BDA weather

L.F. Wade International International Airport
Hamilton, Bermuda

Public forecast

Using degrees Celsius for public forecast. Weather courtesy of forecast.io.

Current aviation weather report (METAR) for L.F. Wade International International Airport

Retrieved 2020/01/28 21:55 UTC (23 minutes ago):

TXKF 282155Z 32017KT 9999 SCT021 16/13 Q1004

Aviation forecast (TAF) for L.F. Wade International International Airport

Retrieved 2020/01/28 18:42 UTC (4 hours ago):

TAF TXKF 281731Z 2818/2918 31020KT 9999 VCSH SCT014 BKN025 TEMPO 2818/2824 28025G35KT 3200 SHRA SCT008 BKN014